Bourbonnais, IL (60914)

8:21 PM CST en Enero 25, 2015 (GMT -0600)
Meadowbrook | Change Station
CLOSE
Current Station
Estación meteorológica personal
Location: Bourbonnais, IL
Altura: 686 ft
Estaciones meteorológicas cercanas

Alt 686 ft 41.19 °N, 87.89 °W | Updated 12 minutes ago

Nublado
Nublado
26.6 ° F
Sensación térmica 18 ° F
N
7.8
Viento Variable Viento desde SE

Hoy
Alta -- | Baja -- ° F
--% Posibilidad de precipitaciones
Ayer
Alta -- | Baja -- ° F
Precip. -- pul
7:08 AM 4:59 PM
Creciente, 38% visible
Presión 29.93 pul
Visibilidad 10.0 Millas
Nubes Muy nublado 1600 ft
Nublado 6000 ft
Vientos helados 18 ° F
Punto de rocío 22 ° F
Humedad 84%
Precipitaciones 0.27 pul
Espesor de la nieve No disponible.
UV 0 de una escala de 12
Polen .10 de una escala de 12
Calidad del aire No disponible.
Flu Activity No disponible.
METAR KIKK 260155Z AUTO 03013G18KT 10SM UP BKN016 OVC060 M02/M05 A2993 RMK AO2 T10241047

More Conditions Fewer Conditions

Presión 29.93 pul
Visibilidad 10.0 Millas
Nubes Muy nublado 1600 ft
Nublado 6000 ft
Vientos helados 18 ° F
Punto de rocío 22 ° F
Humedad 84%
Precipitaciones 0.27 pul
Espesor de la nieve No disponible.
UV 0 de una escala de 12
Polen .10 de una escala de 12
Calidad del aire No disponible.
Flu Activity No disponible.
METAR KIKK 260155Z AUTO 03013G18KT 10SM UP BKN016 OVC060 M02/M05 A2993 RMK AO2 T10241047

More Conditions Fewer Conditions

10-Day Weather Forecast

Almanac

Astronomía

Jan. 25, 2015 Salida Puesta
Hora real
Crepúsculo civil
Crepúsculo náutico
Crepúsculo astronómico
Luna
Horas de luz
Horas de luz
Tomorrow will be .
, % of the Moon is Illuminated

Extremos de hoy

Máximos del estado Bajos del estado

Community

WunderPhotos

Upload Photos

1,790,069 ¡fotos cargadas!

WunderBlogs® & News

Nearby

Calidad del aire

  Calidad del aire Índice AQ Contaminante
Not available.

Grosos de nieve

Estación Profundido Altura

Actividad de terremotos

Ciudad Distance Mag. Tiempo y dato
Magnitud mínima muestra es 2,5.

Temperaturas de aguas costeras

Lugar Temperatura

Estaciones meteorológicas cercanas